Time;durP1;ratioP1;P1;durP2;ratioP2;P2;SDS_P1;SDS_P2;PMS_P1;PMS_P2;Temp;Humidity;BMP_temperature;BMP_pressure;BME280_temperature;BME280_humidity;BME280_pressure;Samples;Min_cycle;Max_cycle;Signal;HPM_P1;HPM_P2
2023/09/13 00:01:42;;;;;;;6.43;2.15;;;18.90;99.90;;;;;;5023098;28;20141;-70
2023/09/13 00:04:07;;;;;;;5.60;1.63;;;18.90;99.90;;;;;;5021350;28;20073;-71
2023/09/13 00:06:33;;;;;;;5.53;1.10;;;18.90;99.90;;;;;;5019186;28;20042;-71
2023/09/13 00:08:59;;;;;;;3.55;1.42;;;18.90;99.90;;;;;;5020471;27;20068;-71
2023/09/13 00:11:24;;;;;;;2.10;1.02;;;18.90;99.90;;;;;;5025364;28;20048;-71
2023/09/13 00:13:50;;;;;;;3.05;1.10;;;18.80;99.90;;;;;;5024361;28;20449;-71
2023/09/13 00:16:15;;;;;;;3.53;1.20;;;18.90;99.90;;;;;;5020073;28;20076;-71
2023/09/13 00:18:41;;;;;;;4.80;1.65;;;18.90;99.90;;;;;;5025614;27;20149;-71
2023/09/13 00:21:09;;;;;;;5.10;1.35;;;18.80;99.90;;;;;;5008247;28;20082;-71
2023/09/13 00:23:35;;;;;;;6.95;1.63;;;18.80;99.90;;;;;;5023803;28;20037;-71
2023/09/13 00:26:01;;;;;;;7.53;1.77;;;18.80;99.90;;;;;;5022502;28;20536;-71
2023/09/13 00:28:26;;;;;;;2.85;1.13;;;18.80;99.90;;;;;;5025981;28;20038;-71
2023/09/13 00:30:52;;;;;;;4.20;1.42;;;18.80;99.90;;;;;;5020852;28;20407;-71
2023/09/13 00:33:17;;;;;;;3.58;1.50;;;18.80;99.90;;;;;;5018354;28;20056;-70
2023/09/13 00:35:43;;;;;;;5.45;1.73;;;18.80;99.90;;;;;;5010014;28;20041;-70
2023/09/13 00:38:08;;;;;;;8.13;1.98;;;18.70;99.90;;;;;;5018399;28;20044;-70
2023/09/13 00:40:34;;;;;;;4.97;1.30;;;18.70;99.90;;;;;;5129549;27;20044;-70
2023/09/13 00:42:59;;;;;;;4.75;1.48;;;18.70;99.90;;;;;;5019033;28;20059;-70
2023/09/13 00:45:29;;;;;;;3.60;1.50;;;18.70;99.90;;;;;;5014938;28;20104;-71
2023/09/13 00:47:55;;;;;;;4.65;1.40;;;18.70;99.90;;;;;;5028144;28;20041;-71
2023/09/13 00:50:21;;;;;;;3.65;1.10;;;18.70;99.90;;;;;;5021289;28;20037;-70
2023/09/13 00:52:47;;;;;;;2.35;1.02;;;18.70;99.90;;;;;;5021433;28;20037;-71
2023/09/13 00:55:16;;;;;;;3.97;1.20;;;18.70;99.90;;;;;;5022836;28;20514;-71
2023/09/13 00:57:42;;;;;;;3.35;0.90;;;18.70;99.90;;;;;;5023542;28;20441;-71
2023/09/13 01:00:11;;;;;;;2.20;1.00;;;18.70;99.90;;;;;;5007568;28;20049;-71
2023/09/13 01:02:41;;;;;;;3.08;1.40;;;18.70;99.90;;;;;;5021552;28;20084;-71
2023/09/13 01:05:09;;;;;;;2.85;0.93;;;18.60;99.90;;;;;;5021542;28;20053;-71
2023/09/13 01:07:35;;;;;;;3.72;1.15;;;18.70;99.90;;;;;;5049861;28;20041;-71
2023/09/13 01:10:02;;;;;;;2.60;1.13;;;18.70;99.90;;;;;;5024312;28;20053;-71
2023/09/13 01:12:27;;;;;;;2.75;1.13;;;18.60;99.90;;;;;;5025068;28;20781;-71
2023/09/13 01:14:53;;;;;;;3.38;1.02;;;18.70;99.90;;;;;;5021765;28;20041;-71
2023/09/13 01:17:32;;;;;;;2.67;1.00;;;18.60;99.90;;;;;;5013908;28;20124;-71
2023/09/13 01:20:09;;;;;;;3.40;1.20;;;18.60;99.90;;;;;;5018004;28;20092;-71
2023/09/13 01:23:04;;;;;;;2.72;1.25;;;18.60;99.90;;;;;;5021639;28;20041;-71
2023/09/13 01:25:48;;;;;;;4.97;1.05;;;18.60;99.90;;;;;;5017589;28;20494;-71
2023/09/13 01:28:34;;;;;;;4.15;0.90;;;18.50;99.90;;;;;;5022837;28;20561;-71
2023/09/13 01:31:04;;;;;;;3.75;1.13;;;18.50;99.90;;;;;;5017498;28;20042;-71
2023/09/13 01:33:29;;;;;;;6.95;1.10;;;18.50;99.90;;;;;;5015544;28;20049;-71
2023/09/13 01:35:55;;;;;;;4.35;1.00;;;18.50;99.90;;;;;;5020682;28;20037;-71
2023/09/13 01:38:21;;;;;;;2.03;0.93;;;18.40;99.90;;;;;;5019112;28;20446;-71
2023/09/13 01:40:48;;;;;;;2.67;0.80;;;18.40;99.90;;;;;;5018486;28;20033;-71
2023/09/13 01:43:14;;;;;;;2.65;0.90;;;18.40;99.90;;;;;;5016908;28;20056;-71
2023/09/13 01:45:41;;;;;;;3.28;0.82;;;18.40;99.90;;;;;;5019218;27;20041;-71
2023/09/13 01:48:09;;;;;;;2.70;0.68;;;18.30;99.90;;;;;;5115607;27;20087;-71
2023/09/13 01:50:35;;;;;;;4.03;1.10;;;18.30;99.90;;;;;;5025033;28;20049;-71
2023/09/13 01:53:01;;;;;;;2.17;0.88;;;18.30;99.90;;;;;;5023546;28;20045;-70
2023/09/13 01:55:27;;;;;;;3.97;1.20;;;18.30;99.90;;;;;;5024450;28;20156;-70
2023/09/13 01:57:52;;;;;;;1.90;0.60;;;18.30;99.90;;;;;;5021451;28;20256;-70
2023/09/13 02:00:18;;;;;;;3.85;0.93;;;18.30;99.90;;;;;;5020507;28;20049;-70
2023/09/13 02:02:44;;;;;;;2.67;0.82;;;18.30;99.90;;;;;;5106494;27;20041;-71
2023/09/13 02:05:10;;;;;;;4.78;0.90;;;18.20;99.90;;;;;;5025218;28;20430;-71
2023/09/13 02:07:35;;;;;;;1.42;0.70;;;18.10;99.90;;;;;;5014792;28;20171;-71
2023/09/13 02:10:01;;;;;;;2.97;0.80;;;18.10;99.90;;;;;;5029043;28;20041;-71
2023/09/13 02:12:26;;;;;;;3.63;0.75;;;18.00;99.90;;;;;;5021563;27;20041;-71
2023/09/13 02:14:53;;;;;;;5.22;1.33;;;18.00;99.90;;;;;;5005426;28;20479;-72
2023/09/13 02:17:19;;;;;;;5.10;0.88;;;18.00;99.90;;;;;;5018941;28;20042;-71
2023/09/13 02:19:49;;;;;;;2.33;0.65;;;18.00;99.90;;;;;;5026724;28;20509;-71
2023/09/13 02:22:14;;;;;;;4.50;0.90;;;18.00;99.90;;;;;;5019281;28;20069;-71
2023/09/13 02:24:40;;;;;;;4.60;0.85;;;18.00;99.90;;;;;;5021603;28;20117;-71
2023/09/13 02:27:05;;;;;;;3.97;0.55;;;18.00;99.90;;;;;;5029608;28;20108;-71
2023/09/13 02:29:31;;;;;;;2.95;0.88;;;18.00;99.90;;;;;;5011132;27;20070;-71
2023/09/13 02:31:57;;;;;;;3.92;1.00;;;18.10;99.90;;;;;;5025922;27;20068;-71
2023/09/13 02:34:23;;;;;;;3.47;0.85;;;18.00;99.90;;;;;;5005858;28;20410;-71
2023/09/13 02:36:49;;;;;;;3.90;0.88;;;18.00;99.90;;;;;;5004398;28;20042;-71
2023/09/13 02:39:34;;;;;;;3.65;0.80;;;18.00;99.90;;;;;;5020646;28;20048;-71
2023/09/13 02:42:00;;;;;;;3.50;0.85;;;17.90;99.90;;;;;;5049696;27;20048;-71
2023/09/13 02:44:26;;;;;;;4.60;1.00;;;17.90;99.90;;;;;;5020176;28;20045;-70
2023/09/13 02:46:51;;;;;;;5.70;1.10;;;17.90;99.90;;;;;;5022804;27;20040;-71
2023/09/13 02:49:17;;;;;;;7.03;1.45;;;17.90;99.90;;;;;;5028265;27;20037;-71
2023/09/13 02:51:43;;;;;;;2.05;0.73;;;17.90;99.90;;;;;;5023290;28;20054;-71
2023/09/13 02:54:08;;;;;;;3.78;0.65;;;17.90;99.90;;;;;;5028808;28;20367;-71
2023/09/13 02:56:34;;;;;;;4.50;0.77;;;17.90;99.90;;;;;;5039224;27;20529;-71
2023/09/13 02:58:59;;;;;;;4.93;1.05;;;17.90;99.90;;;;;;5021130;27;20061;-71
2023/09/13 03:01:25;;;;;;;2.63;0.75;;;17.90;99.90;;;;;;5030664;27;20038;-71
2023/09/13 03:03:51;;;;;;;2.95;1.10;;;17.80;99.90;;;;;;5021797;28;20045;-71
2023/09/13 03:06:16;;;;;;;7.05;1.25;;;17.80;99.90;;;;;;5021913;28;20053;-71
2023/09/13 03:08:42;;;;;;;3.28;0.60;;;17.80;99.90;;;;;;5025294;28;20414;-71
2023/09/13 03:11:12;;;;;;;5.35;1.02;;;17.80;99.90;;;;;;5023593;28;20310;-71
2023/09/13 03:13:38;;;;;;;1.77;0.80;;;17.70;99.90;;;;;;5027523;28;20181;-71
2023/09/13 03:16:14;;;;;;;2.83;0.60;;;17.70;99.90;;;;;;5021257;28;20532;-71
2023/09/13 03:18:39;;;;;;;3.17;0.80;;;17.70;99.90;;;;;;5123601;27;20041;-70
2023/09/13 03:21:09;;;;;;;1.88;0.98;;;17.70;99.90;;;;;;5024629;28;20498;-71
2023/09/13 03:23:40;;;;;;;3.83;0.88;;;17.70;99.90;;;;;;5026798;27;20029;-71
2023/09/13 03:26:14;;;;;;;2.58;0.80;;;17.70;99.90;;;;;;5011975;28;20395;-71
2023/09/13 03:28:39;;;;;;;3.83;0.88;;;17.70;99.90;;;;;;5020580;28;20040;-71
2023/09/13 03:31:10;;;;;;;1.33;0.70;;;17.70;99.90;;;;;;5117497;27;20053;-71
2023/09/13 03:33:36;;;;;;;2.10;0.70;;;17.70;99.90;;;;;;5105723;27;20590;-71
2023/09/13 03:36:02;;;;;;;3.50;0.80;;;17.70;99.90;;;;;;5017737;28;20115;-71
2023/09/13 03:38:27;;;;;;;4.45;0.95;;;17.70;99.90;;;;;;5020118;28;20271;-71
2023/09/13 03:40:53;;;;;;;1.90;0.73;;;17.70;99.90;;;;;;5000566;27;20112;-71
2023/09/13 03:43:18;;;;;;;4.50;1.10;;;17.70;99.90;;;;;;5020427;28;20055;-71
2023/09/13 03:45:44;;;;;;;3.47;0.75;;;17.70;99.90;;;;;;4999247;27;20078;-71
2023/09/13 03:48:09;;;;;;;5.57;1.20;;;17.70;99.90;;;;;;5022179;28;20041;-71
2023/09/13 03:50:36;;;;;;;3.28;0.73;;;17.70;99.90;;;;;;5020799;28;20041;-70
2023/09/13 03:53:01;;;;;;;1.95;0.73;;;17.70;99.90;;;;;;5028614;28;20086;-71
2023/09/13 03:55:28;;;;;;;3.60;0.77;;;17.70;99.90;;;;;;5020408;28;20034;-70
2023/09/13 03:57:53;;;;;;;4.35;0.73;;;17.80;99.90;;;;;;5024604;28;20053;-71
2023/09/13 04:00:19;;;;;;;5.68;0.73;;;17.70;99.90;;;;;;5016680;28;20038;-71
2023/09/13 04:02:45;;;;;;;2.33;0.70;;;17.80;99.90;;;;;;5019698;28;20033;-71
2023/09/13 04:05:10;;;;;;;3.95;1.05;;;17.80;99.90;;;;;;5018134;28;20101;-71
2023/09/13 04:07:36;;;;;;;2.35;0.50;;;17.70;99.90;;;;;;5020755;28;20038;-71
2023/09/13 04:10:01;;;;;;;7.10;0.75;;;17.70;99.90;;;;;;5121285;27;20386;-71
2023/09/13 04:12:27;;;;;;;2.15;0.63;;;17.70;99.90;;;;;;5020075;28;20306;-70
2023/09/13 04:14:52;;;;;;;5.75;1.00;;;17.70;99.90;;;;;;5019214;27;20526;-71
2023/09/13 04:17:18;;;;;;;4.07;1.00;;;17.70;99.90;;;;;;5016304;28;20038;-71
2023/09/13 04:19:44;;;;;;;3.42;0.70;;;17.70;99.90;;;;;;5016881;28;20045;-71
2023/09/13 04:22:13;;;;;;;3.25;1.13;;;17.70;99.90;;;;;;5023223;28;20045;-71
2023/09/13 04:24:38;;;;;;;4.13;0.98;;;17.70;99.90;;;;;;5021326;27;20048;-71
2023/09/13 04:27:04;;;;;;;5.45;1.35;;;17.70;99.90;;;;;;5121383;27;20037;-71
2023/09/13 04:29:30;;;;;;;3.88;0.88;;;17.70;99.90;;;;;;5012878;28;20038;-70
2023/09/13 04:31:55;;;;;;;2.40;0.60;;;17.60;99.90;;;;;;5020038;28;20089;-70
2023/09/13 04:34:21;;;;;;;3.35;0.82;;;17.70;99.90;;;;;;5023288;28;20045;-71
2023/09/13 04:36:46;;;;;;;3.75;0.95;;;17.60;99.90;;;;;;5022658;28;20097;-71
2023/09/13 04:39:12;;;;;;;3.17;0.85;;;17.60;99.90;;;;;;5022053;28;20047;-70
2023/09/13 04:41:37;;;;;;;5.45;1.20;;;17.50;99.90;;;;;;5016650;28;20041;-71
2023/09/13 04:44:03;;;;;;;4.05;0.93;;;17.50;99.90;;;;;;5038286;27;20040;-71
2023/09/13 04:46:29;;;;;;;4.35;1.05;;;17.50;99.90;;;;;;5024332;28;20041;-71
2023/09/13 04:48:54;;;;;;;2.13;0.90;;;17.50;99.90;;;;;;5025085;28;20497;-71
2023/09/13 04:51:20;;;;;;;4.25;1.00;;;17.50;99.90;;;;;;5020006;28;20394;-71
2023/09/13 04:53:45;;;;;;;1.85;0.68;;;17.50;99.90;;;;;;5025608;28;20385;-71
2023/09/13 04:56:11;;;;;;;2.67;0.80;;;17.40;99.90;;;;;;5024534;28;20086;-71
2023/09/13 04:58:36;;;;;;;2.97;0.70;;;17.40;99.90;;;;;;5118890;27;20263;-71
2023/09/13 05:01:02;;;;;;;2.63;0.60;;;17.40;99.90;;;;;;5024985;28;20037;-71
2023/09/13 05:03:27;;;;;;;4.55;0.80;;;17.30;99.90;;;;;;5011888;28;20059;-70
2023/09/13 05:05:55;;;;;;;2.60;0.77;;;17.20;99.90;;;;;;5019271;28;20081;-71
2023/09/13 05:08:21;;;;;;;2.95;0.77;;;17.10;99.90;;;;;;5027889;28;20509;-71
2023/09/13 05:10:46;;;;;;;4.07;0.88;;;17.00;99.90;;;;;;5022265;28;20033;-70
2023/09/13 05:13:13;;;;;;;2.97;1.17;;;17.00;99.90;;;;;;5026392;28;20044;-71
2023/09/13 05:15:43;;;;;;;3.70;1.00;;;17.00;99.90;;;;;;5012840;28;20486;-71
2023/09/13 05:18:09;;;;;;;4.95;0.60;;;16.90;99.90;;;;;;5006738;28;20095;-71
2023/09/13 05:20:34;;;;;;;3.47;0.70;;;16.90;99.90;;;;;;5025276;27;20041;-71
2023/09/13 05:23:00;;;;;;;2.72;0.52;;;16.90;99.90;;;;;;5023162;28;20041;-71
2023/09/13 05:25:25;;;;;;;1.63;0.68;;;16.80;99.90;;;;;;5024899;28;20193;-71
2023/09/13 05:27:51;;;;;;;3.03;0.95;;;16.80;99.90;;;;;;5023657;28;20686;-71
2023/09/13 05:30:16;;;;;;;2.15;0.88;;;16.70;99.90;;;;;;5014647;28;20876;-71
2023/09/13 05:32:42;;;;;;;1.83;0.60;;;16.70;99.90;;;;;;5021637;28;20464;-71
2023/09/13 05:35:08;;;;;;;2.95;0.50;;;16.60;99.90;;;;;;5016898;27;20045;-71
2023/09/13 05:37:33;;;;;;;3.40;0.60;;;16.60;99.90;;;;;;5020954;28;20456;-72
2023/09/13 05:39:59;;;;;;;3.47;0.70;;;16.50;99.90;;;;;;5053204;27;20041;-71
2023/09/13 05:42:25;;;;;;;2.53;0.68;;;16.50;99.90;;;;;;5004099;28;20551;-70
2023/09/13 05:44:50;;;;;;;5.88;1.10;;;16.40;99.90;;;;;;5021516;28;20041;-70
2023/09/13 05:47:16;;;;;;;2.45;0.73;;;16.30;99.90;;;;;;5024867;27;20049;-70
2023/09/13 05:49:41;;;;;;;2.28;0.65;;;16.20;99.90;;;;;;5023253;28;20464;-69
2023/09/13 05:52:07;;;;;;;5.85;0.90;;;16.10;99.90;;;;;;5028376;28;20033;-70
2023/09/13 05:54:33;;;;;;;5.13;0.93;;;16.00;99.90;;;;;;4989056;28;20095;-70
2023/09/13 05:56:58;;;;;;;2.08;0.60;;;16.00;99.90;;;;;;5018319;28;20057;-70
2023/09/13 05:59:24;;;;;;;4.03;0.65;;;15.90;99.90;;;;;;5022750;28;20079;-70
2023/09/13 06:01:50;;;;;;;2.42;0.68;;;15.80;99.90;;;;;;5118379;27;20451;-70
2023/09/13 06:04:16;;;;;;;6.55;0.90;;;15.80;99.90;;;;;;5017781;28;20102;-70
2023/09/13 06:06:42;;;;;;;3.85;0.77;;;15.70;99.90;;;;;;5027600;28;20714;-69
2023/09/13 06:09:08;;;;;;;1.90;0.60;;;15.60;99.90;;;;;;5007106;28;20041;-69
2023/09/13 06:11:33;;;;;;;3.22;0.50;;;15.40;99.90;;;;;;5024349;27;20420;-74
2023/09/13 06:14:03;;;;;;;2.40;0.52;;;15.30;99.90;;;;;;5027191;27;20055;-70
2023/09/13 06:16:29;;;;;;;2.00;0.50;;;15.10;99.90;;;;;;5029948;28;20069;-71
2023/09/13 06:18:54;;;;;;;3.20;0.60;;;15.00;99.90;;;;;;5003973;28;20091;-70
2023/09/13 06:21:20;;;;;;;1.52;0.50;;;14.80;99.90;;;;;;5010254;27;20037;-70
2023/09/13 06:23:47;;;;;;;5.32;0.70;;;14.80;99.90;;;;;;5115228;27;20049;-71
2023/09/13 06:26:12;;;;;;;2.45;0.80;;;14.70;99.90;;;;;;4992627;28;20054;-71
2023/09/13 06:28:39;;;;;;;2.55;0.70;;;14.70;99.90;;;;;;5018395;28;20045;-71
2023/09/13 06:31:05;;;;;;;3.95;0.65;;;14.70;99.90;;;;;;5020723;27;20513;-71
2023/09/13 06:33:31;;;;;;;4.43;0.80;;;14.60;99.90;;;;;;5014845;28;20029;-71
2023/09/13 06:35:56;;;;;;;4.03;0.73;;;14.60;99.90;;;;;;5017121;28;20033;-71
2023/09/13 06:38:22;;;;;;;2.55;0.60;;;14.60;99.90;;;;;;5027503;28;20037;-71
2023/09/13 06:40:50;;;;;;;3.17;1.00;;;14.60;99.90;;;;;;5024849;28;20052;-71
2023/09/13 06:43:18;;;;;;;1.23;0.50;;;14.60;99.90;;;;;;5010688;28;20476;-71
2023/09/13 06:45:44;;;;;;;2.03;0.70;;;14.60;99.90;;;;;;5026182;28;20029;-71
2023/09/13 06:48:10;;;;;;;3.35;0.75;;;14.60;99.90;;;;;;5006293;27;20523;-70
2023/09/13 06:50:35;;;;;;;5.57;1.02;;;14.60;99.90;;;;;;5050370;27;20080;-71
2023/09/13 06:53:01;;;;;;;3.58;0.93;;;14.60;99.90;;;;;;5025677;27;20068;-71
2023/09/13 06:55:27;;;;;;;4.60;0.82;;;14.60;99.90;;;;;;5020245;28;20543;-71
2023/09/13 06:57:53;;;;;;;2.08;0.52;;;14.60;99.90;;;;;;5024589;28;20034;-71
2023/09/13 07:00:19;;;;;;;2.38;0.80;;;14.70;99.90;;;;;;5020672;28;20041;-72
2023/09/13 07:02:45;;;;;;;2.85;0.70;;;14.60;99.90;;;;;;5120434;27;20045;-70
2023/09/13 07:05:10;;;;;;;3.90;0.95;;;14.50;99.90;;;;;;5028637;27;20057;-70
2023/09/13 07:07:36;;;;;;;2.42;0.75;;;14.50;99.90;;;;;;5019780;28;20041;-70
2023/09/13 07:10:03;;;;;;;3.88;1.20;;;14.50;99.90;;;;;;5022135;27;20037;-70
2023/09/13 07:12:28;;;;;;;5.18;0.80;;;14.50;99.90;;;;;;5028369;28;20036;-70
2023/09/13 07:14:54;;;;;;;4.15;1.13;;;14.50;99.90;;;;;;5030978;28;20048;-70
2023/09/13 07:17:19;;;;;;;4.38;1.60;;;14.50;99.90;;;;;;5023555;28;20476;-70
2023/09/13 07:19:45;;;;;;;5.30;1.20;;;14.60;99.90;;;;;;5025381;28;20041;-70
2023/09/13 07:22:11;;;;;;;3.55;1.08;;;14.60;99.90;;;;;;5021253;27;20428;-70
2023/09/13 07:24:36;;;;;;;3.63;1.35;;;14.60;99.90;;;;;;5027718;28;20033;-70
2023/09/13 07:27:02;;;;;;;2.95;1.20;;;14.60;99.90;;;;;;5024171;28;20498;-70
2023/09/13 07:29:27;;;;;;;3.40;1.20;;;14.60;99.90;;;;;;5026294;28;20967;-70
2023/09/13 07:31:53;;;;;;;7.10;1.00;;;14.60;99.90;;;;;;5013142;28;20098;-70
2023/09/13 07:34:20;;;;;;;6.57;1.13;;;14.60;99.90;;;;;;5021887;27;20048;-70
2023/09/13 07:36:45;;;;;;;4.40;1.02;;;14.70;99.90;;;;;;5023859;28;20042;-70
2023/09/13 07:39:11;;;;;;;3.42;0.77;;;14.70;99.90;;;;;;5019910;27;20037;-70
2023/09/13 07:41:36;;;;;;;4.85;1.35;;;14.70;99.90;;;;;;5115027;27;20025;-70
2023/09/13 07:44:02;;;;;;;4.05;1.30;;;14.70;99.90;;;;;;5021009;28;20527;-71
2023/09/13 07:46:27;;;;;;;4.10;1.10;;;14.70;99.90;;;;;;5114978;27;20698;-71
2023/09/13 07:48:53;;;;;;;1.67;1.02;;;14.70;99.90;;;;;;5024531;28;20049;-71
2023/09/13 07:51:19;;;;;;;5.90;1.15;;;14.80;99.90;;;;;;5024317;27;20581;-71
2023/09/13 07:53:44;;;;;;;3.25;0.80;;;14.70;99.90;;;;;;5021583;28;20044;-71
2023/09/13 07:56:10;;;;;;;3.88;1.17;;;14.80;99.90;;;;;;5026147;28;20037;-71
2023/09/13 07:58:35;;;;;;;4.53;1.02;;;14.80;99.90;;;;;;5021222;28;20178;-71
2023/09/13 08:01:01;;;;;;;5.03;1.50;;;14.80;99.90;;;;;;5020154;28;20586;-71
2023/09/13 08:03:27;;;;;;;4.35;1.48;;;14.80;99.90;;;;;;5113023;27;20061;-71
2023/09/13 08:05:53;;;;;;;3.42;0.93;;;14.80;99.90;;;;;;5004432;28;20156;-71
2023/09/13 08:08:22;;;;;;;4.90;1.00;;;14.80;99.90;;;;;;5019419;27;20041;-71
2023/09/13 08:10:52;;;;;;;5.65;0.93;;;14.80;99.90;;;;;;5019640;28;20215;-71
2023/09/13 08:13:21;;;;;;;6.68;1.30;;;14.80;99.90;;;;;;5016298;28;20390;-71
2023/09/13 08:15:48;;;;;;;3.45;0.90;;;14.90;99.90;;;;;;5019430;27;20036;-71
2023/09/13 08:18:14;;;;;;;2.40;0.90;;;14.90;99.90;;;;;;5018459;27;20519;-71
2023/09/13 08:20:39;;;;;;;4.13;1.15;;;14.90;99.90;;;;;;5016191;27;20097;-71
2023/09/13 08:23:05;;;;;;;5.35;1.42;;;14.90;99.90;;;;;;5108254;27;20045;-71
2023/09/13 08:25:30;;;;;;;2.78;1.10;;;14.90;99.90;;;;;;5012902;27;20053;-71
2023/09/13 08:27:56;;;;;;;7.32;1.23;;;15.00;99.90;;;;;;5019412;27;20042;-71
2023/09/13 08:30:22;;;;;;;4.03;0.93;;;15.00;99.90;;;;;;5018572;28;20037;-72
2023/09/13 08:32:47;;;;;;;7.55;1.08;;;15.00;99.90;;;;;;5022108;27;20029;-71
2023/09/13 08:35:13;;;;;;;2.53;1.02;;;15.00;99.90;;;;;;5020829;28;20471;-72
2023/09/13 08:37:38;;;;;;;6.25;0.98;;;15.00;99.90;;;;;;5012971;28;20367;-71
2023/09/13 08:40:04;;;;;;;4.97;0.93;;;15.10;99.90;;;;;;5019060;28;20042;-71
2023/09/13 08:42:30;;;;;;;4.93;1.20;;;15.10;99.90;;;;;;5024268;28;20046;-71
2023/09/13 08:44:59;;;;;;;5.88;0.90;;;15.10;99.90;;;;;;5021075;28;20403;-71
2023/09/13 08:47:27;;;;;;;2.90;1.00;;;15.10;99.90;;;;;;5025241;27;20045;-71
2023/09/13 08:49:55;;;;;;;1.92;0.60;;;15.10;99.90;;;;;;5109731;27;20129;-71
2023/09/13 08:52:21;;;;;;;1.63;0.80;;;15.10;99.90;;;;;;4989672;28;20042;-72
2023/09/13 08:54:48;;;;;;;2.63;0.90;;;15.20;99.90;;;;;;5017361;28;20033;-71
2023/09/13 08:57:14;;;;;;;1.63;0.65;;;15.20;99.90;;;;;;5114719;27;20086;-71
2023/09/13 08:59:40;;;;;;;2.88;0.70;;;15.30;99.90;;;;;;5020519;28;20041;-72
2023/09/13 09:02:14;;;;;;;4.93;0.85;;;15.30;99.90;;;;;;4998689;28;20044;-71
2023/09/13 09:04:40;;;;;;;4.72;0.90;;;15.30;99.90;;;;;;5017040;28;20063;-71
2023/09/13 09:07:07;;;;;;;2.30;0.70;;;15.40;99.90;;;;;;5014950;28;20571;-71
2023/09/13 09:09:34;;;;;;;2.00;0.70;;;15.40;99.90;;;;;;5092967;28;20038;-71
2023/09/13 09:12:03;;;;;;;3.05;0.80;;;15.50;99.90;;;;;;4999763;28;20464;-71
2023/09/13 09:14:32;;;;;;;2.63;0.80;;;15.60;99.90;;;;;;5013945;28;20056;-71
2023/09/13 09:17:00;;;;;;;3.83;0.90;;;15.70;99.90;;;;;;5015612;28;20034;-71
2023/09/13 09:19:27;;;;;;;4.50;0.68;;;15.70;99.90;;;;;;5018562;28;20045;-72
2023/09/13 09:21:53;;;;;;;3.35;0.70;;;15.70;99.90;;;;;;5111197;27;20497;-72
2023/09/13 09:24:19;;;;;;;2.13;0.60;;;15.80;99.90;;;;;;5022700;28;20064;-72
2023/09/13 09:26:45;;;;;;;6.43;0.82;;;15.80;99.90;;;;;;5020987;28;20069;-71
2023/09/13 09:29:16;;;;;;;2.50;0.70;;;15.80;99.90;;;;;;5115000;27;20403;-72
2023/09/13 09:31:43;;;;;;;5.57;0.93;;;15.90;99.90;;;;;;5116775;27;20046;-71
2023/09/13 09:34:10;;;;;;;6.93;1.42;;;15.90;99.90;;;;;;5019752;28;20029;-71
2023/09/13 09:36:43;;;;;;;6.80;0.80;;;15.90;99.90;;;;;;5110334;27;20324;-71
2023/09/13 09:39:09;;;;;;;5.15;1.40;;;16.00;99.90;;;;;;5018261;28;20044;-71
2023/09/13 09:41:37;;;;;;;2.95;0.82;;;16.10;99.90;;;;;;5015953;28;20055;-71
2023/09/13 09:44:04;;;;;;;2.05;0.80;;;16.10;99.90;;;;;;5101979;28;20036;-72
2023/09/13 09:46:33;;;;;;;5.78;0.88;;;16.10;99.90;;;;;;5022880;28;20034;-72
2023/09/13 09:49:00;;;;;;;3.15;0.80;;;16.10;99.90;;;;;;5016462;28;20131;-71
2023/09/13 09:51:26;;;;;;;5.30;0.98;;;16.10;99.90;;;;;;5013359;28;20045;-71
2023/09/13 09:53:52;;;;;;;3.47;0.80;;;16.20;99.90;;;;;;5026072;28;20309;-71
2023/09/13 09:56:18;;;;;;;3.53;0.80;;;16.20;99.90;;;;;;5018963;28;20034;-72
2023/09/13 09:58:47;;;;;;;5.00;0.82;;;16.20;99.90;;;;;;5005414;28;20048;-71
2023/09/13 10:01:13;;;;;;;7.15;1.48;;;16.40;99.90;;;;;;5110764;27;20043;-72
2023/09/13 10:03:38;;;;;;;2.25;0.93;;;16.40;99.90;;;;;;5005008;28;20145;-71
2023/09/13 10:06:12;;;;;;;3.85;0.65;;;16.40;99.90;;;;;;5020819;27;20049;-72
2023/09/13 10:08:50;;;;;;;1.98;0.60;;;16.30;99.90;;;;;;5020464;28;20394;-72
2023/09/13 10:11:19;;;;;;;2.35;1.00;;;16.30;99.90;;;;;;5018563;28;20069;-74
2023/09/13 10:13:45;;;;;;;3.08;1.00;;;16.20;99.90;;;;;;5021869;27;20614;-72
2023/09/13 10:16:11;;;;;;;3.40;0.80;;;16.20;99.90;;;;;;5018086;28;20260;-71
2023/09/13 10:18:43;;;;;;;3.78;0.90;;;16.10;99.90;;;;;;5022103;28;20156;-71
2023/09/13 10:21:09;;;;;;;2.30;0.90;;;16.00;99.90;;;;;;5016293;27;20063;-71
2023/09/13 10:23:44;;;;;;;2.13;0.70;;;15.90;99.90;;;;;;5015583;28;20110;-72
2023/09/13 10:26:11;;;;;;;3.10;0.70;;;15.80;99.90;;;;;;5013822;28;20038;-71
2023/09/13 10:28:40;;;;;;;6.28;1.15;;;15.80;99.90;;;;;;5019156;27;20308;-71
2023/09/13 10:31:17;;;;;;;1.95;0.70;;;15.70;99.90;;;;;;5023445;27;20044;-71
2023/09/13 10:33:53;;;;;;;4.45;1.02;;;15.70;99.90;;;;;;5116090;27;20041;-73
2023/09/13 10:36:36;;;;;;;3.90;1.02;;;15.70;99.90;;;;;;5010579;27;20061;-71
2023/09/13 10:39:25;;;;;;;4.50;1.10;;;15.70;99.90;;;;;;5020359;28;20046;-71
2023/09/13 10:42:11;;;;;;;4.65;0.98;;;15.70;99.90;;;;;;5011560;28;20204;-71
2023/09/13 10:44:38;;;;;;;4.32;1.15;;;15.80;99.90;;;;;;5018567;28;20045;-71
2023/09/13 10:47:05;;;;;;;4.28;0.70;;;15.80;99.90;;;;;;5028080;28;20399;-72
2023/09/13 10:49:30;;;;;;;5.45;1.08;;;15.90;99.90;;;;;;5004724;28;20070;-71
2023/09/13 10:51:57;;;;;;;3.22;0.80;;;16.00;99.90;;;;;;5024654;27;20559;-71
2023/09/13 10:54:24;;;;;;;3.65;0.93;;;16.10;99.90;;;;;;5019791;28;20499;-71
2023/09/13 10:56:51;;;;;;;5.40;0.95;;;16.10;99.90;;;;;;5021471;28;20117;-71
2023/09/13 10:59:22;;;;;;;6.45;1.17;;;16.20;99.90;;;;;;5120379;27;20057;-71
2023/09/13 11:01:47;;;;;;;4.93;1.05;;;16.20;99.90;;;;;;5021203;27;20316;-71
2023/09/13 11:04:19;;;;;;;2.97;0.70;;;16.30;99.90;;;;;;5016463;28;20396;-71
2023/09/13 11:06:46;;;;;;;5.47;1.15;;;16.40;99.90;;;;;;5017286;27;20551;-71
2023/09/13 11:09:13;;;;;;;4.15;1.13;;;16.40;99.90;;;;;;5002325;28;20073;-71
2023/09/13 11:11:44;;;;;;;3.28;0.90;;;16.50;99.90;;;;;;5013319;28;20081;-71
2023/09/13 11:14:11;;;;;;;5.10;1.10;;;16.50;99.90;;;;;;5012402;27;20178;-71
2023/09/13 11:16:39;;;;;;;5.38;0.90;;;16.50;99.90;;;;;;5022767;27;20141;-70
2023/09/13 11:19:09;;;;;;;3.63;1.15;;;16.60;99.90;;;;;;5019539;27;20037;-71
2023/09/13 11:21:46;;;;;;;4.22;1.02;;;16.70;99.90;;;;;;5016815;27;20305;-71
2023/09/13 11:24:12;;;;;;;5.93;1.05;;;16.70;99.90;;;;;;5115270;27;20065;-71
2023/09/13 11:26:48;;;;;;;4.65;0.82;;;16.70;99.90;;;;;;5021875;28;20929;-72
2023/09/13 11:29:27;;;;;;;3.45;0.73;;;16.70;99.90;;;;;;4987278;28;20073;-72
2023/09/13 11:32:01;;;;;;;3.30;0.75;;;16.70;99.90;;;;;;5019330;28;20113;-71
2023/09/13 11:34:27;;;;;;;5.57;1.17;;;16.70;99.90;;;;;;5027779;27;20033;-72
2023/09/13 11:37:04;;;;;;;5.00;1.25;;;16.80;99.90;;;;;;5017414;27;20025;-71
2023/09/13 11:39:31;;;;;;;6.05;1.23;;;16.70;99.90;;;;;;5014391;27;20056;-71
2023/09/13 11:41:57;;;;;;;3.30;0.88;;;16.80;99.90;;;;;;5017333;27;20034;-71
2023/09/13 11:44:24;;;;;;;4.35;0.75;;;16.80;99.90;;;;;;5012921;27;20189;-71
2023/09/13 11:46:50;;;;;;;3.15;0.85;;;16.80;99.90;;;;;;5016204;27;20041;-71
2023/09/13 11:49:25;;;;;;;3.10;0.80;;;16.80;99.90;;;;;;5093759;27;20472;-72
2023/09/13 11:51:57;;;;;;;4.15;0.82;;;16.80;99.90;;;;;;5015174;28;20957;-71
2023/09/13 11:54:24;;;;;;;4.22;0.80;;;16.80;99.90;;;;;;5019126;27;20041;-71
2023/09/13 11:56:52;;;;;;;2.05;0.57;;;16.80;99.90;;;;;;5021402;28;20117;-71
2023/09/13 11:59:38;;;;;;;2.05;0.68;;;16.80;99.90;;;;;;5023596;28;20041;-71
2023/09/13 12:02:04;;;;;;;4.10;0.85;;;16.90;99.90;;;;;;5090977;27;20044;-71
2023/09/13 12:04:29;;;;;;;3.05;0.80;;;16.90;99.90;;;;;;5022754;27;20050;-72
2023/09/13 12:06:55;;;;;;;4.22;1.02;;;17.00;99.90;;;;;;5106781;27;20041;-72
2023/09/13 12:09:22;;;;;;;1.58;0.65;;;17.00;99.90;;;;;;5019122;27;20045;-72
2023/09/13 12:11:54;;;;;;;3.03;0.80;;;17.10;99.90;;;;;;5010752;27;20056;-72
2023/09/13 12:14:22;;;;;;;6.15;0.80;;;17.10;99.90;;;;;;5018118;27;20318;-71
2023/09/13 12:16:49;;;;;;;1.88;0.35;;;17.20;99.90;;;;;;5018446;27;20051;-71
2023/09/13 12:19:15;;;;;;;3.33;0.50;;;17.20;99.90;;;;;;5020740;27;20048;-71
2023/09/13 12:21:45;;;;;;;1.98;0.73;;;17.20;99.90;;;;;;5007607;27;20042;-71
2023/09/13 12:24:18;;;;;;;2.13;0.68;;;17.20;99.90;;;;;;5110036;27;20304;-71
2023/09/13 12:26:44;;;;;;;4.32;0.82;;;17.20;99.90;;;;;;5023405;28;20128;-71
2023/09/13 12:29:10;;;;;;;3.20;0.80;;;17.10;99.90;;;;;;5020711;28;20112;-71
2023/09/13 12:31:37;;;;;;;3.38;0.70;;;17.10;99.90;;;;;;5019493;27;20037;-71
2023/09/13 12:34:04;;;;;;;1.48;0.57;;;17.20;99.90;;;;;;5025881;28;20408;-71
2023/09/13 12:36:31;;;;;;;1.63;0.73;;;17.20;99.90;;;;;;5034912;27;20033;-71
2023/09/13 12:38:58;;;;;;;5.45;0.65;;;17.20;99.90;;;;;;5015581;27;20029;-71
2023/09/13 12:41:32;;;;;;;2.03;0.40;;;17.20;99.90;;;;;;5026457;27;20059;-71
2023/09/13 12:43:59;;;;;;;1.38;0.60;;;17.10;99.90;;;;;;5025397;27;20053;-71
2023/09/13 12:46:26;;;;;;;1.17;0.52;;;17.10;99.90;;;;;;5022742;28;20051;-71
2023/09/13 12:48:54;;;;;;;1.98;0.70;;;17.10;99.90;;;;;;5017208;28;20471;-71